sensor_id;sensor_type;location;lat;lon;timestamp;P1;durP1;ratioP1;P2;durP2;ratioP2
67828;SDS011;54626;45.436;10.942;2022-08-19T00:01:49;8.02;;;2.28;;
67828;SDS011;54626;45.436;10.942;2022-08-19T00:04:18;3.25;;;1.45;;
67828;SDS011;54626;45.436;10.942;2022-08-19T00:06:53;2.97;;;1.70;;
67828;SDS011;54626;45.436;10.942;2022-08-19T00:09:21;8.15;;;2.40;;
67828;SDS011;54626;45.436;10.942;2022-08-19T00:11:48;3.78;;;1.50;;
67828;SDS011;54626;45.436;10.942;2022-08-19T00:14:18;3.63;;;1.20;;
67828;SDS011;54626;45.436;10.942;2022-08-19T00:16:47;4.05;;;1.67;;
67828;SDS011;54626;45.436;10.942;2022-08-19T00:19:14;5.45;;;2.03;;
67828;SDS011;54626;45.436;10.942;2022-08-19T00:21:41;5.43;;;1.95;;
67828;SDS011;54626;45.436;10.942;2022-08-19T00:24:08;3.03;;;1.52;;
67828;SDS011;54626;45.436;10.942;2022-08-19T00:26:39;5.28;;;2.25;;
67828;SDS011;54626;45.436;10.942;2022-08-19T00:29:07;4.40;;;1.33;;
67828;SDS011;54626;45.436;10.942;2022-08-19T00:31:36;3.97;;;1.30;;
67828;SDS011;54626;45.436;10.942;2022-08-19T00:34:03;3.67;;;1.83;;
67828;SDS011;54626;45.436;10.942;2022-08-19T00:36:30;6.45;;;2.00;;
67828;SDS011;54626;45.436;10.942;2022-08-19T00:38:58;5.35;;;2.00;;
67828;SDS011;54626;45.436;10.942;2022-08-19T00:41:25;5.75;;;2.28;;
67828;SDS011;54626;45.436;10.942;2022-08-19T00:44:06;6.28;;;2.00;;
67828;SDS011;54626;45.436;10.942;2022-08-19T00:46:36;7.68;;;2.92;;
67828;SDS011;54626;45.436;10.942;2022-08-19T00:49:12;7.30;;;2.67;;
67828;SDS011;54626;45.436;10.942;2022-08-19T00:51:41;7.28;;;3.03;;
67828;SDS011;54626;45.436;10.942;2022-08-19T00:54:09;6.45;;;2.70;;
67828;SDS011;54626;45.436;10.942;2022-08-19T00:56:35;6.40;;;2.25;;
67828;SDS011;54626;45.436;10.942;2022-08-19T00:59:03;5.55;;;1.92;;
67828;SDS011;54626;45.436;10.942;2022-08-19T01:01:38;4.60;;;1.63;;
67828;SDS011;54626;45.436;10.942;2022-08-19T01:04:06;6.38;;;2.92;;
67828;SDS011;54626;45.436;10.942;2022-08-19T01:09:45;4.35;;;1.75;;
67828;SDS011;54626;45.436;10.942;2022-08-19T01:12:16;5.15;;;1.65;;
67828;SDS011;54626;45.436;10.942;2022-08-19T01:14:54;6.10;;;1.67;;
67828;SDS011;54626;45.436;10.942;2022-08-19T01:17:27;5.90;;;1.30;;
67828;SDS011;54626;45.436;10.942;2022-08-19T01:19:56;5.85;;;2.15;;
67828;SDS011;54626;45.436;10.942;2022-08-19T01:22:31;4.72;;;2.08;;
67828;SDS011;54626;45.436;10.942;2022-08-19T01:25:10;4.97;;;1.60;;
67828;SDS011;54626;45.436;10.942;2022-08-19T01:27:44;5.40;;;2.50;;
67828;SDS011;54626;45.436;10.942;2022-08-19T01:30:38;3.88;;;1.90;;
67828;SDS011;54626;45.436;10.942;2022-08-19T01:33:16;5.88;;;2.47;;
67828;SDS011;54626;45.436;10.942;2022-08-19T01:35:45;6.38;;;2.10;;
67828;SDS011;54626;45.436;10.942;2022-08-19T01:38:20;9.07;;;2.47;;
67828;SDS011;54626;45.436;10.942;2022-08-19T01:40:57;7.97;;;2.60;;
67828;SDS011;54626;45.436;10.942;2022-08-19T01:43:28;4.45;;;2.15;;
67828;SDS011;54626;45.436;10.942;2022-08-19T01:45:57;6.35;;;2.42;;
67828;SDS011;54626;45.436;10.942;2022-08-19T01:48:41;3.85;;;1.98;;
67828;SDS011;54626;45.436;10.942;2022-08-19T01:51:21;6.40;;;2.35;;
67828;SDS011;54626;45.436;10.942;2022-08-19T01:53:51;5.78;;;2.10;;
67828;SDS011;54626;45.436;10.942;2022-08-19T01:56:22;8.25;;;2.92;;
67828;SDS011;54626;45.436;10.942;2022-08-19T01:58:56;5.95;;;2.13;;
67828;SDS011;54626;45.436;10.942;2022-08-19T02:01:27;9.70;;;2.50;;
67828;SDS011;54626;45.436;10.942;2022-08-19T02:03:58;3.85;;;1.63;;
67828;SDS011;54626;45.436;10.942;2022-08-19T02:06:30;5.53;;;2.90;;
67828;SDS011;54626;45.436;10.942;2022-08-19T02:09:00;3.78;;;1.80;;
67828;SDS011;54626;45.436;10.942;2022-08-19T02:11:33;6.38;;;2.10;;
67828;SDS011;54626;45.436;10.942;2022-08-19T02:14:23;7.30;;;2.75;;
67828;SDS011;54626;45.436;10.942;2022-08-19T02:16:53;6.18;;;2.78;;
67828;SDS011;54626;45.436;10.942;2022-08-19T02:19:32;4.80;;;1.85;;
67828;SDS011;54626;45.436;10.942;2022-08-19T02:22:06;8.18;;;2.60;;
67828;SDS011;54626;45.436;10.942;2022-08-19T02:24:32;5.85;;;1.92;;
67828;SDS011;54626;45.436;10.942;2022-08-19T02:27:02;4.03;;;1.45;;
67828;SDS011;54626;45.436;10.942;2022-08-19T02:29:31;6.15;;;2.22;;
67828;SDS011;54626;45.436;10.942;2022-08-19T02:32:00;7.60;;;2.15;;
67828;SDS011;54626;45.436;10.942;2022-08-19T02:34:39;3.38;;;1.80;;
67828;SDS011;54626;45.436;10.942;2022-08-19T02:37:15;4.38;;;1.33;;
67828;SDS011;54626;45.436;10.942;2022-08-19T02:40:03;5.57;;;1.92;;
67828;SDS011;54626;45.436;10.942;2022-08-19T02:42:40;5.53;;;2.10;;
67828;SDS011;54626;45.436;10.942;2022-08-19T02:45:09;6.20;;;2.78;;
67828;SDS011;54626;45.436;10.942;2022-08-19T02:47:39;6.80;;;2.28;;
67828;SDS011;54626;45.436;10.942;2022-08-19T02:50:10;4.80;;;1.90;;
67828;SDS011;54626;45.436;10.942;2022-08-19T02:52:36;5.63;;;2.28;;
67828;SDS011;54626;45.436;10.942;2022-08-19T02:55:06;4.13;;;1.85;;
67828;SDS011;54626;45.436;10.942;2022-08-19T02:57:38;7.72;;;2.40;;
67828;SDS011;54626;45.436;10.942;2022-08-19T03:00:06;6.25;;;2.08;;
67828;SDS011;54626;45.436;10.942;2022-08-19T03:02:39;5.97;;;1.90;;
67828;SDS011;54626;45.436;10.942;2022-08-19T03:05:24;9.40;;;3.30;;
67828;SDS011;54626;45.436;10.942;2022-08-19T03:08:12;8.27;;;2.35;;
67828;SDS011;54626;45.436;10.942;2022-08-19T03:10:44;7.03;;;2.03;;
67828;SDS011;54626;45.436;10.942;2022-08-19T03:13:22;5.85;;;1.75;;
67828;SDS011;54626;45.436;10.942;2022-08-19T03:15:50;5.32;;;1.60;;
67828;SDS011;54626;45.436;10.942;2022-08-19T03:20:54;4.13;;;1.90;;
67828;SDS011;54626;45.436;10.942;2022-08-19T03:23:25;6.47;;;2.00;;
67828;SDS011;54626;45.436;10.942;2022-08-19T03:25:54;6.13;;;1.88;;
67828;SDS011;54626;45.436;10.942;2022-08-19T03:28:42;5.35;;;1.98;;
67828;SDS011;54626;45.436;10.942;2022-08-19T03:31:24;8.63;;;2.47;;
67828;SDS011;54626;45.436;10.942;2022-08-19T03:34:16;6.65;;;1.90;;
67828;SDS011;54626;45.436;10.942;2022-08-19T03:39:17;6.88;;;2.38;;
67828;SDS011;54626;45.436;10.942;2022-08-19T03:41:50;5.07;;;2.03;;
67828;SDS011;54626;45.436;10.942;2022-08-19T03:47:07;4.68;;;1.92;;
67828;SDS011;54626;45.436;10.942;2022-08-19T03:49:43;3.70;;;1.60;;
67828;SDS011;54626;45.436;10.942;2022-08-19T03:52:12;2.45;;;1.50;;
67828;SDS011;54626;45.436;10.942;2022-08-19T03:54:44;3.20;;;1.52;;
67828;SDS011;54626;45.436;10.942;2022-08-19T03:57:20;4.78;;;2.00;;
67828;SDS011;54626;45.436;10.942;2022-08-19T03:59:59;6.05;;;2.08;;
67828;SDS011;54626;45.436;10.942;2022-08-19T04:02:39;5.82;;;2.03;;
67828;SDS011;54626;45.436;10.942;2022-08-19T04:05:27;4.72;;;1.95;;
67828;SDS011;54626;45.436;10.942;2022-08-19T04:07:56;4.05;;;1.65;;
67828;SDS011;54626;45.436;10.942;2022-08-19T04:10:39;7.43;;;2.58;;
67828;SDS011;54626;45.436;10.942;2022-08-19T04:13:10;4.80;;;2.10;;
67828;SDS011;54626;45.436;10.942;2022-08-19T04:15:50;6.53;;;2.63;;
67828;SDS011;54626;45.436;10.942;2022-08-19T04:18:20;7.07;;;2.92;;
67828;SDS011;54626;45.436;10.942;2022-08-19T04:20:51;4.40;;;2.42;;
67828;SDS011;54626;45.436;10.942;2022-08-19T04:23:26;4.15;;;1.67;;
67828;SDS011;54626;45.436;10.942;2022-08-19T04:25:56;8.20;;;2.95;;
67828;SDS011;54626;45.436;10.942;2022-08-19T04:28:29;8.43;;;3.10;;
67828;SDS011;54626;45.436;10.942;2022-08-19T04:30:59;8.32;;;2.90;;
67828;SDS011;54626;45.436;10.942;2022-08-19T04:33:26;7.78;;;3.03;;
67828;SDS011;54626;45.436;10.942;2022-08-19T04:35:57;12.20;;;4.03;;
67828;SDS011;54626;45.436;10.942;2022-08-19T04:38:25;7.97;;;3.55;;
67828;SDS011;54626;45.436;10.942;2022-08-19T04:40:54;8.10;;;3.28;;
67828;SDS011;54626;45.436;10.942;2022-08-19T04:43:42;7.55;;;3.78;;
67828;SDS011;54626;45.436;10.942;2022-08-19T04:46:19;9.18;;;4.20;;
67828;SDS011;54626;45.436;10.942;2022-08-19T04:49:08;11.05;;;4.68;;
67828;SDS011;54626;45.436;10.942;2022-08-19T04:51:44;12.85;;;3.28;;
67828;SDS011;54626;45.436;10.942;2022-08-19T04:57:04;11.48;;;5.00;;
67828;SDS011;54626;45.436;10.942;2022-08-19T04:59:38;9.05;;;4.18;;
67828;SDS011;54626;45.436;10.942;2022-08-19T05:02:06;12.70;;;4.45;;
67828;SDS011;54626;45.436;10.942;2022-08-19T05:04:37;11.68;;;4.28;;
67828;SDS011;54626;45.436;10.942;2022-08-19T05:07:07;6.55;;;2.83;;
67828;SDS011;54626;45.436;10.942;2022-08-19T05:09:34;8.73;;;3.38;;
67828;SDS011;54626;45.436;10.942;2022-08-19T05:12:24;6.45;;;2.63;;
67828;SDS011;54626;45.436;10.942;2022-08-19T05:14:56;6.13;;;3.13;;
67828;SDS011;54626;45.436;10.942;2022-08-19T05:17:30;7.20;;;3.22;;
67828;SDS011;54626;45.436;10.942;2022-08-19T05:20:04;6.75;;;2.42;;
67828;SDS011;54626;45.436;10.942;2022-08-19T05:22:52;6.95;;;2.70;;
67828;SDS011;54626;45.436;10.942;2022-08-19T05:25:22;7.47;;;2.60;;
67828;SDS011;54626;45.436;10.942;2022-08-19T05:33:17;7.97;;;2.88;;
67828;SDS011;54626;45.436;10.942;2022-08-19T05:35:45;6.35;;;2.97;;
67828;SDS011;54626;45.436;10.942;2022-08-19T05:38:21;8.50;;;2.90;;
67828;SDS011;54626;45.436;10.942;2022-08-19T05:40:48;5.13;;;2.67;;
67828;SDS011;54626;45.436;10.942;2022-08-19T05:43:15;6.82;;;2.42;;
67828;SDS011;54626;45.436;10.942;2022-08-19T05:45:44;4.88;;;1.90;;
67828;SDS011;54626;45.436;10.942;2022-08-19T05:48:13;5.68;;;2.10;;
67828;SDS011;54626;45.436;10.942;2022-08-19T05:50:42;10.02;;;3.05;;
67828;SDS011;54626;45.436;10.942;2022-08-19T05:53:13;7.00;;;2.33;;
67828;SDS011;54626;45.436;10.942;2022-08-19T05:55:44;8.77;;;3.20;;
67828;SDS011;54626;45.436;10.942;2022-08-19T05:58:14;8.13;;;2.85;;
67828;SDS011;54626;45.436;10.942;2022-08-19T06:00:44;7.90;;;2.90;;
67828;SDS011;54626;45.436;10.942;2022-08-19T06:03:15;9.02;;;2.45;;
67828;SDS011;54626;45.436;10.942;2022-08-19T06:05:44;7.47;;;2.83;;
67828;SDS011;54626;45.436;10.942;2022-08-19T06:08:17;4.93;;;2.60;;
67828;SDS011;54626;45.436;10.942;2022-08-19T06:10:47;6.30;;;2.70;;
67828;SDS011;54626;45.436;10.942;2022-08-19T06:13:17;6.43;;;2.50;;
67828;SDS011;54626;45.436;10.942;2022-08-19T06:15:49;8.30;;;2.83;;
67828;SDS011;54626;45.436;10.942;2022-08-19T06:18:16;7.07;;;2.55;;
67828;SDS011;54626;45.436;10.942;2022-08-19T06:20:42;10.77;;;4.30;;
67828;SDS011;54626;45.436;10.942;2022-08-19T06:23:21;5.95;;;2.55;;
67828;SDS011;54626;45.436;10.942;2022-08-19T06:25:53;6.13;;;2.00;;
67828;SDS011;54626;45.436;10.942;2022-08-19T06:28:22;7.85;;;2.70;;
67828;SDS011;54626;45.436;10.942;2022-08-19T06:30:49;7.70;;;2.47;;
67828;SDS011;54626;45.436;10.942;2022-08-19T06:33:19;8.80;;;3.15;;
67828;SDS011;54626;45.436;10.942;2022-08-19T06:35:49;8.82;;;2.60;;
67828;SDS011;54626;45.436;10.942;2022-08-19T06:38:18;9.05;;;3.08;;
67828;SDS011;54626;45.436;10.942;2022-08-19T06:40:48;10.02;;;4.18;;
67828;SDS011;54626;45.436;10.942;2022-08-19T06:43:15;8.02;;;3.63;;
67828;SDS011;54626;45.436;10.942;2022-08-19T06:46:03;8.18;;;3.28;;
67828;SDS011;54626;45.436;10.942;2022-08-19T06:48:33;9.23;;;4.43;;
67828;SDS011;54626;45.436;10.942;2022-08-19T06:51:11;7.72;;;3.90;;
67828;SDS011;54626;45.436;10.942;2022-08-19T06:53:50;8.88;;;3.95;;
67828;SDS011;54626;45.436;10.942;2022-08-19T06:56:23;9.90;;;3.95;;
67828;SDS011;54626;45.436;10.942;2022-08-19T06:59:09;8.07;;;4.07;;
67828;SDS011;54626;45.436;10.942;2022-08-19T07:01:47;9.10;;;4.30;;
67828;SDS011;54626;45.436;10.942;2022-08-19T07:04:20;7.97;;;3.63;;
67828;SDS011;54626;45.436;10.942;2022-08-19T07:06:58;14.20;;;4.63;;
67828;SDS011;54626;45.436;10.942;2022-08-19T07:09:46;11.80;;;5.20;;
67828;SDS011;54626;45.436;10.942;2022-08-19T07:12:25;12.30;;;4.90;;
67828;SDS011;54626;45.436;10.942;2022-08-19T07:14:54;13.00;;;5.68;;
67828;SDS011;54626;45.436;10.942;2022-08-19T07:17:27;14.70;;;6.00;;
67828;SDS011;54626;45.436;10.942;2022-08-19T07:19:54;12.93;;;6.18;;
67828;SDS011;54626;45.436;10.942;2022-08-19T07:22:32;11.15;;;5.38;;
67828;SDS011;54626;45.436;10.942;2022-08-19T07:27:58;12.27;;;5.40;;
67828;SDS011;54626;45.436;10.942;2022-08-19T07:30:27;14.43;;;5.63;;
67828;SDS011;54626;45.436;10.942;2022-08-19T07:32:54;16.20;;;5.80;;
67828;SDS011;54626;45.436;10.942;2022-08-19T07:35:23;12.05;;;5.30;;
67828;SDS011;54626;45.436;10.942;2022-08-19T07:37:50;10.32;;;4.35;;
67828;SDS011;54626;45.436;10.942;2022-08-19T07:40:16;12.40;;;5.80;;
67828;SDS011;54626;45.436;10.942;2022-08-19T07:42:50;10.30;;;3.60;;
67828;SDS011;54626;45.436;10.942;2022-08-19T07:45:40;10.25;;;4.03;;
67828;SDS011;54626;45.436;10.942;2022-08-19T07:48:06;14.57;;;5.97;;
67828;SDS011;54626;45.436;10.942;2022-08-19T07:50:36;17.85;;;6.95;;
67828;SDS011;54626;45.436;10.942;2022-08-19T07:53:04;13.63;;;6.40;;
67828;SDS011;54626;45.436;10.942;2022-08-19T07:55:33;13.38;;;6.07;;
67828;SDS011;54626;45.436;10.942;2022-08-19T07:58:08;15.77;;;6.80;;
67828;SDS011;54626;45.436;10.942;2022-08-19T08:00:37;17.05;;;6.72;;
67828;SDS011;54626;45.436;10.942;2022-08-19T08:03:07;15.65;;;7.25;;
67828;SDS011;54626;45.436;10.942;2022-08-19T08:05:38;21.17;;;8.48;;
67828;SDS011;54626;45.436;10.942;2022-08-19T08:08:23;14.38;;;6.55;;
67828;SDS011;54626;45.436;10.942;2022-08-19T08:11:15;14.57;;;6.35;;
67828;SDS011;54626;45.436;10.942;2022-08-19T08:13:49;17.35;;;7.22;;
67828;SDS011;54626;45.436;10.942;2022-08-19T08:16:29;15.25;;;7.70;;
67828;SDS011;54626;45.436;10.942;2022-08-19T08:18:59;15.43;;;7.18;;
67828;SDS011;54626;45.436;10.942;2022-08-19T08:21:32;16.45;;;7.07;;
67828;SDS011;54626;45.436;10.942;2022-08-19T08:24:01;18.27;;;7.28;;
67828;SDS011;54626;45.436;10.942;2022-08-19T08:26:28;11.35;;;4.18;;
67828;SDS011;54626;45.436;10.942;2022-08-19T08:28:59;9.30;;;4.88;;
67828;SDS011;54626;45.436;10.942;2022-08-19T08:31:39;10.70;;;5.13;;
67828;SDS011;54626;45.436;10.942;2022-08-19T08:34:07;15.85;;;6.32;;
67828;SDS011;54626;45.436;10.942;2022-08-19T08:36:40;12.65;;;6.43;;
67828;SDS011;54626;45.436;10.942;2022-08-19T08:39:11;10.13;;;4.57;;
67828;SDS011;54626;45.436;10.942;2022-08-19T08:44:18;10.82;;;4.65;;
67828;SDS011;54626;45.436;10.942;2022-08-19T08:46:53;6.38;;;2.80;;
67828;SDS011;54626;45.436;10.942;2022-08-19T08:54:59;6.60;;;2.60;;
67828;SDS011;54626;45.436;10.942;2022-08-19T08:57:32;8.48;;;2.58;;
67828;SDS011;54626;45.436;10.942;2022-08-19T09:02:40;8.02;;;2.63;;
67828;SDS011;54626;45.436;10.942;2022-08-19T09:05:09;7.50;;;2.78;;
67828;SDS011;54626;45.436;10.942;2022-08-19T09:10:39;4.85;;;2.47;;
67828;SDS011;54626;45.436;10.942;2022-08-19T09:16:07;6.07;;;2.42;;
67828;SDS011;54626;45.436;10.942;2022-08-19T09:18:46;4.38;;;1.67;;
67828;SDS011;54626;45.436;10.942;2022-08-19T09:21:21;6.50;;;3.22;;
67828;SDS011;54626;45.436;10.942;2022-08-19T09:23:58;10.15;;;4.43;;
67828;SDS011;54626;45.436;10.942;2022-08-19T09:26:31;7.25;;;3.20;;
67828;SDS011;54626;45.436;10.942;2022-08-19T09:29:18;9.25;;;3.40;;
67828;SDS011;54626;45.436;10.942;2022-08-19T09:31:47;9.52;;;3.78;;
67828;SDS011;54626;45.436;10.942;2022-08-19T09:34:14;15.25;;;4.43;;
67828;SDS011;54626;45.436;10.942;2022-08-19T09:36:49;11.80;;;3.83;;
67828;SDS011;54626;45.436;10.942;2022-08-19T09:39:22;7.90;;;3.85;;
67828;SDS011;54626;45.436;10.942;2022-08-19T09:42:01;11.35;;;4.75;;
67828;SDS011;54626;45.436;10.942;2022-08-19T09:44:29;11.75;;;4.85;;
67828;SDS011;54626;45.436;10.942;2022-08-19T09:47:00;7.93;;;3.42;;
67828;SDS011;54626;45.436;10.942;2022-08-19T09:49:26;5.25;;;2.92;;
67828;SDS011;54626;45.436;10.942;2022-08-19T09:51:53;6.97;;;3.95;;
67828;SDS011;54626;45.436;10.942;2022-08-19T09:54:22;9.23;;;4.40;;
67828;SDS011;54626;45.436;10.942;2022-08-19T09:56:51;4.93;;;3.30;;
67828;SDS011;54626;45.436;10.942;2022-08-19T09:59:23;6.43;;;4.00;;
67828;SDS011;54626;45.436;10.942;2022-08-19T10:01:50;5.45;;;3.20;;
67828;SDS011;54626;45.436;10.942;2022-08-19T10:04:17;8.65;;;4.28;;
67828;SDS011;54626;45.436;10.942;2022-08-19T10:06:48;6.60;;;2.97;;
67828;SDS011;54626;45.436;10.942;2022-08-19T10:09:18;7.47;;;3.45;;
67828;SDS011;54626;45.436;10.942;2022-08-19T10:11:59;6.70;;;3.05;;
67828;SDS011;54626;45.436;10.942;2022-08-19T10:14:31;6.13;;;2.72;;
67828;SDS011;54626;45.436;10.942;2022-08-19T10:17:02;6.55;;;3.55;;
67828;SDS011;54626;45.436;10.942;2022-08-19T10:19:46;6.22;;;2.80;;
67828;SDS011;54626;45.436;10.942;2022-08-19T10:22:20;5.90;;;3.13;;
67828;SDS011;54626;45.436;10.942;2022-08-19T10:24:50;7.50;;;2.97;;
67828;SDS011;54626;45.436;10.942;2022-08-19T10:27:20;7.03;;;3.58;;
67828;SDS011;54626;45.436;10.942;2022-08-19T10:29:47;7.15;;;3.28;;
67828;SDS011;54626;45.436;10.942;2022-08-19T10:32:15;4.80;;;2.50;;
67828;SDS011;54626;45.436;10.942;2022-08-19T10:34:41;6.53;;;2.97;;
67828;SDS011;54626;45.436;10.942;2022-08-19T10:37:13;6.32;;;3.25;;
67828;SDS011;54626;45.436;10.942;2022-08-19T10:39:45;9.45;;;4.45;;
67828;SDS011;54626;45.436;10.942;2022-08-19T10:42:14;8.02;;;3.90;;
67828;SDS011;54626;45.436;10.942;2022-08-19T10:44:42;6.22;;;3.88;;
67828;SDS011;54626;45.436;10.942;2022-08-19T10:47:09;9.43;;;4.40;;
67828;SDS011;54626;45.436;10.942;2022-08-19T10:49:49;7.68;;;3.95;;
67828;SDS011;54626;45.436;10.942;2022-08-19T10:52:38;5.45;;;2.70;;
67828;SDS011;54626;45.436;10.942;2022-08-19T10:55:16;5.53;;;2.80;;
67828;SDS011;54626;45.436;10.942;2022-08-19T10:58:03;6.75;;;3.78;;
67828;SDS011;54626;45.436;10.942;2022-08-19T11:00:35;7.43;;;2.80;;
67828;SDS011;54626;45.436;10.942;2022-08-19T11:03:05;8.32;;;3.75;;
67828;SDS011;54626;45.436;10.942;2022-08-19T11:05:35;5.20;;;3.10;;
67828;SDS011;54626;45.436;10.942;2022-08-19T11:08:06;8.75;;;4.72;;
67828;SDS011;54626;45.436;10.942;2022-08-19T11:10:49;5.72;;;3.45;;
67828;SDS011;54626;45.436;10.942;2022-08-19T11:13:33;9.00;;;4.38;;
67828;SDS011;54626;45.436;10.942;2022-08-19T11:16:06;8.43;;;4.40;;
67828;SDS011;54626;45.436;10.942;2022-08-19T11:18:36;8.02;;;3.17;;
67828;SDS011;54626;45.436;10.942;2022-08-19T11:21:18;7.78;;;4.55;;
67828;SDS011;54626;45.436;10.942;2022-08-19T11:23:51;8.48;;;4.18;;
67828;SDS011;54626;45.436;10.942;2022-08-19T11:26:24;9.50;;;4.97;;
67828;SDS011;54626;45.436;10.942;2022-08-19T11:28:52;5.95;;;3.53;;
67828;SDS011;54626;45.436;10.942;2022-08-19T11:31:31;11.35;;;4.70;;
67828;SDS011;54626;45.436;10.942;2022-08-19T11:34:00;8.45;;;4.45;;
67828;SDS011;54626;45.436;10.942;2022-08-19T11:36:31;7.43;;;4.25;;
67828;SDS011;54626;45.436;10.942;2022-08-19T11:39:07;7.70;;;3.30;;
67828;SDS011;54626;45.436;10.942;2022-08-19T11:41:39;8.57;;;4.85;;
67828;SDS011;54626;45.436;10.942;2022-08-19T11:44:09;8.85;;;4.97;;
67828;SDS011;54626;45.436;10.942;2022-08-19T11:46:36;7.55;;;4.25;;
67828;SDS011;54626;45.436;10.942;2022-08-19T11:49:05;8.15;;;4.88;;
67828;SDS011;54626;45.436;10.942;2022-08-19T11:51:39;5.40;;;3.90;;
67828;SDS011;54626;45.436;10.942;2022-08-19T11:54:08;7.95;;;4.75;;
67828;SDS011;54626;45.436;10.942;2022-08-19T11:56:40;7.30;;;4.40;;
67828;SDS011;54626;45.436;10.942;2022-08-19T11:59:10;6.72;;;3.75;;
67828;SDS011;54626;45.436;10.942;2022-08-19T12:01:40;7.10;;;4.47;;
67828;SDS011;54626;45.436;10.942;2022-08-19T12:04:10;9.27;;;5.45;;
67828;SDS011;54626;45.436;10.942;2022-08-19T12:06:38;8.10;;;5.13;;
67828;SDS011;54626;45.436;10.942;2022-08-19T12:09:08;8.68;;;4.10;;
67828;SDS011;54626;45.436;10.942;2022-08-19T12:11:36;6.75;;;3.63;;
67828;SDS011;54626;45.436;10.942;2022-08-19T12:14:06;6.13;;;4.00;;
67828;SDS011;54626;45.436;10.942;2022-08-19T12:16:40;6.47;;;4.40;;
67828;SDS011;54626;45.436;10.942;2022-08-19T12:19:16;6.47;;;3.67;;
67828;SDS011;54626;45.436;10.942;2022-08-19T12:21:48;6.95;;;3.90;;
67828;SDS011;54626;45.436;10.942;2022-08-19T12:24:16;6.88;;;3.90;;
67828;SDS011;54626;45.436;10.942;2022-08-19T12:26:49;5.75;;;3.65;;
67828;SDS011;54626;45.436;10.942;2022-08-19T12:29:18;6.93;;;3.50;;
67828;SDS011;54626;45.436;10.942;2022-08-19T12:31:49;5.68;;;3.25;;
67828;SDS011;54626;45.436;10.942;2022-08-19T12:34:16;6.40;;;3.70;;
67828;SDS011;54626;45.436;10.942;2022-08-19T12:36:51;6.20;;;2.75;;
67828;SDS011;54626;45.436;10.942;2022-08-19T12:39:19;5.65;;;3.30;;
67828;SDS011;54626;45.436;10.942;2022-08-19T12:41:46;5.47;;;2.97;;
67828;SDS011;54626;45.436;10.942;2022-08-19T12:44:19;5.80;;;2.83;;
67828;SDS011;54626;45.436;10.942;2022-08-19T12:46:54;5.65;;;3.25;;
67828;SDS011;54626;45.436;10.942;2022-08-19T12:49:23;4.68;;;2.90;;
67828;SDS011;54626;45.436;10.942;2022-08-19T12:52:11;7.15;;;2.85;;
67828;SDS011;54626;45.436;10.942;2022-08-19T12:54:48;4.82;;;3.30;;
67828;SDS011;54626;45.436;10.942;2022-08-19T12:57:20;6.57;;;2.88;;
67828;SDS011;54626;45.436;10.942;2022-08-19T12:59:51;5.85;;;3.10;;
67828;SDS011;54626;45.436;10.942;2022-08-19T13:02:22;7.53;;;3.17;;
67828;SDS011;54626;45.436;10.942;2022-08-19T13:04:49;4.38;;;2.75;;
67828;SDS011;54626;45.436;10.942;2022-08-19T13:07:16;5.20;;;3.25;;
67828;SDS011;54626;45.436;10.942;2022-08-19T13:09:45;4.68;;;3.25;;
67828;SDS011;54626;45.436;10.942;2022-08-19T13:12:14;6.93;;;3.00;;
67828;SDS011;54626;45.436;10.942;2022-08-19T13:14:40;5.57;;;3.08;;
67828;SDS011;54626;45.436;10.942;2022-08-19T13:17:07;4.43;;;2.67;;
67828;SDS011;54626;45.436;10.942;2022-08-19T13:19:36;4.07;;;2.42;;
67828;SDS011;54626;45.436;10.942;2022-08-19T13:22:07;3.90;;;2.25;;
67828;SDS011;54626;45.436;10.942;2022-08-19T13:24:40;4.43;;;2.03;;
67828;SDS011;54626;45.436;10.942;2022-08-19T13:27:12;6.57;;;2.63;;
67828;SDS011;54626;45.436;10.942;2022-08-19T13:29:41;7.07;;;2.67;;
67828;SDS011;54626;45.436;10.942;2022-08-19T13:32:30;3.63;;;2.20;;
67828;SDS011;54626;45.436;10.942;2022-08-19T13:35:16;3.70;;;2.58;;
67828;SDS011;54626;45.436;10.942;2022-08-19T13:37:45;3.58;;;2.13;;
67828;SDS011;54626;45.436;10.942;2022-08-19T13:40:17;4.82;;;1.98;;
67828;SDS011;54626;45.436;10.942;2022-08-19T13:42:48;4.35;;;2.30;;
67828;SDS011;54626;45.436;10.942;2022-08-19T13:45:21;3.95;;;1.60;;
67828;SDS011;54626;45.436;10.942;2022-08-19T13:47:52;3.80;;;2.38;;
67828;SDS011;54626;45.436;10.942;2022-08-19T13:50:28;3.08;;;1.90;;
67828;SDS011;54626;45.436;10.942;2022-08-19T13:52:57;3.65;;;2.28;;
67828;SDS011;54626;45.436;10.942;2022-08-19T13:55:43;3.22;;;2.20;;
67828;SDS011;54626;45.436;10.942;2022-08-19T13:58:12;5.20;;;2.17;;
67828;SDS011;54626;45.436;10.942;2022-08-19T14:00:43;3.47;;;2.60;;
67828;SDS011;54626;45.436;10.942;2022-08-19T14:03:11;5.22;;;2.70;;
67828;SDS011;54626;45.436;10.942;2022-08-19T14:05:48;2.78;;;1.92;;
67828;SDS011;54626;45.436;10.942;2022-08-19T14:08:15;3.35;;;2.17;;
67828;SDS011;54626;45.436;10.942;2022-08-19T14:10:42;3.88;;;2.10;;
67828;SDS011;54626;45.436;10.942;2022-08-19T14:13:13;4.88;;;2.45;;
67828;SDS011;54626;45.436;10.942;2022-08-19T14:15:43;5.55;;;2.45;;
67828;SDS011;54626;45.436;10.942;2022-08-19T14:18:10;3.55;;;1.90;;
67828;SDS011;54626;45.436;10.942;2022-08-19T14:20:37;4.22;;;2.13;;
67828;SDS011;54626;45.436;10.942;2022-08-19T14:23:06;5.63;;;3.10;;
67828;SDS011;54626;45.436;10.942;2022-08-19T14:25:37;5.88;;;2.92;;
67828;SDS011;54626;45.436;10.942;2022-08-19T14:28:04;4.28;;;2.25;;
67828;SDS011;54626;45.436;10.942;2022-08-19T14:30:32;3.97;;;2.65;;
67828;SDS011;54626;45.436;10.942;2022-08-19T14:33:04;3.90;;;1.70;;
67828;SDS011;54626;45.436;10.942;2022-08-19T14:35:34;2.47;;;1.65;;
67828;SDS011;54626;45.436;10.942;2022-08-19T14:38:03;6.90;;;1.40;;
67828;SDS011;54626;45.436;10.942;2022-08-19T14:40:34;2.40;;;1.10;;
67828;SDS011;54626;45.436;10.942;2022-08-19T14:43:05;1.23;;;0.88;;
67828;SDS011;54626;45.436;10.942;2022-08-19T14:45:32;1.77;;;1.00;;
67828;SDS011;54626;45.436;10.942;2022-08-19T14:48:04;3.50;;;1.20;;
67828;SDS011;54626;45.436;10.942;2022-08-19T14:50:46;6.05;;;1.73;;
67828;SDS011;54626;45.436;10.942;2022-08-19T14:53:15;3.38;;;1.70;;
67828;SDS011;54626;45.436;10.942;2022-08-19T14:55:42;3.35;;;1.70;;
67828;SDS011;54626;45.436;10.942;2022-08-19T14:58:09;4.07;;;1.63;;
67828;SDS011;54626;45.436;10.942;2022-08-19T15:00:56;3.85;;;1.83;;
67828;SDS011;54626;45.436;10.942;2022-08-19T15:03:28;4.30;;;2.42;;
67828;SDS011;54626;45.436;10.942;2022-08-19T15:05:55;6.05;;;2.28;;
67828;SDS011;54626;45.436;10.942;2022-08-19T15:08:24;4.10;;;1.73;;
67828;SDS011;54626;45.436;10.942;2022-08-19T15:10:51;3.78;;;1.38;;
67828;SDS011;54626;45.436;10.942;2022-08-19T15:13:18;3.75;;;1.60;;
67828;SDS011;54626;45.436;10.942;2022-08-19T15:15:44;3.65;;;1.30;;
67828;SDS011;54626;45.436;10.942;2022-08-19T15:18:13;2.83;;;1.20;;
67828;SDS011;54626;45.436;10.942;2022-08-19T15:20:40;1.98;;;1.15;;
67828;SDS011;54626;45.436;10.942;2022-08-19T15:23:07;5.10;;;1.80;;
67828;SDS011;54626;45.436;10.942;2022-08-19T15:25:33;2.42;;;1.13;;
67828;SDS011;54626;45.436;10.942;2022-08-19T15:28:00;3.72;;;1.20;;
67828;SDS011;54626;45.436;10.942;2022-08-19T15:30:27;3.15;;;1.40;;
67828;SDS011;54626;45.436;10.942;2022-08-19T15:32:57;4.65;;;1.40;;
67828;SDS011;54626;45.436;10.942;2022-08-19T15:35:24;1.80;;;1.02;;
67828;SDS011;54626;45.436;10.942;2022-08-19T15:37:56;4.20;;;1.33;;
67828;SDS011;54626;45.436;10.942;2022-08-19T15:40:23;2.53;;;1.10;;
67828;SDS011;54626;45.436;10.942;2022-08-19T15:42:52;5.03;;;1.35;;